createdAt,value
2023-11-12T07:43:13.704Z,9.83
2023-11-12T07:45:41.000Z,9.86
2023-11-12T07:48:08.144Z,9.80
2023-11-12T07:50:35.165Z,9.89
2023-11-12T07:53:02.160Z,9.99
2023-11-12T07:55:30.670Z,10.02
2023-11-12T07:57:58.808Z,9.95
2023-11-12T08:00:25.846Z,10.05
2023-11-12T08:02:52.825Z,9.83
2023-11-12T08:05:19.842Z,9.72
2023-11-12T08:07:46.821Z,9.68
2023-11-12T08:10:13.768Z,9.79
2023-11-12T08:12:40.933Z,9.80
2023-11-12T08:15:07.866Z,9.86
2023-11-12T08:17:34.848Z,9.74
2023-11-12T08:20:01.895Z,9.82
2023-11-12T08:22:28.838Z,9.78
2023-11-12T08:24:55.988Z,9.87
2023-11-12T08:27:23.203Z,9.95
2023-11-12T08:29:50.250Z,10.09
2023-11-12T08:32:17.545Z,10.18
2023-11-12T08:34:44.610Z,9.94
2023-11-12T08:37:11.672Z,9.87
2023-11-12T08:39:38.823Z,9.88
2023-11-12T08:42:05.855Z,10.09
2023-11-12T08:44:32.828Z,10.30
2023-11-12T08:46:59.971Z,10.36
2023-11-12T08:49:27.043Z,10.50
2023-11-12T08:51:54.098Z,10.58
2023-11-12T08:54:21.392Z,10.67
2023-11-12T08:56:49.603Z,10.71
2023-11-12T08:59:16.578Z,10.83
2023-11-12T09:01:43.627Z,10.93
2023-11-12T09:04:10.953Z,10.81
2023-11-12T09:06:38.019Z,10.79
2023-11-12T09:09:04.999Z,10.54
2023-11-12T09:11:32.321Z,10.60
2023-11-12T09:16:35.881Z,10.73
2023-11-12T14:26:29.072Z,12.10
2023-11-12T14:28:56.137Z,12.06
2023-11-12T14:31:23.216Z,12.20
2023-11-12T14:33:50.401Z,12.23
2023-11-12T14:36:17.575Z,12.20
2023-11-12T14:38:44.520Z,12.25
2023-11-12T14:41:11.633Z,12.29
2023-11-12T14:43:38.937Z,12.33
2023-11-12T14:46:06.202Z,12.52
2023-11-12T14:48:33.249Z,12.36
2023-11-12T14:51:00.620Z,12.36
2023-11-12T18:54:25.670Z,12.70
2023-11-12T18:56:52.797Z,12.55
2023-11-12T19:02:09.790Z,12.22
2023-11-12T19:07:21.043Z,12.19
2023-11-12T19:09:57.372Z,12.31
2023-11-12T21:14:02.060Z,10.95
2023-11-12T21:16:30.329Z,11.01
2023-11-12T21:18:57.874Z,11.07
2023-11-12T21:21:25.018Z,10.96
2023-11-12T21:23:52.070Z,11.29
2023-11-12T21:26:19.058Z,11.28
2023-11-12T21:28:46.144Z,11.07
2023-11-12T21:31:13.232Z,11.01
2023-11-12T21:33:40.224Z,10.96
2023-11-12T21:36:07.386Z,10.99
2023-11-12T21:38:34.400Z,10.89
2023-11-12T21:41:01.628Z,10.98
2023-11-12T21:43:28.670Z,11.09
2023-11-12T21:45:55.830Z,11.19
2023-11-12T21:48:22.999Z,11.17
2023-11-12T21:50:50.105Z,11.02
2023-11-12T21:53:17.113Z,10.99
2023-11-12T21:55:44.082Z,11.01
2023-11-12T21:58:11.194Z,10.91
2023-11-12T22:00:38.291Z,11.18
2023-11-12T22:03:08.781Z,11.13
2023-11-12T22:05:50.582Z,11.22
2023-11-12T22:08:17.563Z,11.02
2023-11-12T22:10:44.634Z,11.30
2023-11-12T22:13:11.856Z,11.36
2023-11-12T22:15:40.209Z,11.36
2023-11-12T22:18:21.806Z,11.20
2023-11-12T22:20:48.861Z,11.22
2023-11-12T22:23:15.859Z,11.24
2023-11-12T22:25:42.949Z,11.14
2023-11-12T22:28:10.207Z,11.04
2023-11-12T22:30:37.119Z,10.91
2023-11-12T22:33:03.976Z,11.01
2023-11-12T22:35:30.891Z,10.78
2023-11-12T22:37:57.936Z,11.13
2023-11-12T22:40:24.893Z,10.98
2023-11-12T22:42:51.986Z,10.93
2023-11-12T22:45:18.767Z,10.90
2023-11-12T22:50:48.548Z,11.07
2023-11-12T22:53:15.442Z,11.20
2023-11-12T22:55:42.346Z,11.24
2023-11-12T22:58:09.167Z,11.04
2023-11-12T23:00:42.408Z,11.15
2023-11-12T23:03:10.815Z,11.46
2023-11-12T23:05:37.737Z,11.45
2023-11-12T23:08:04.673Z,11.33
2023-11-12T23:10:31.417Z,11.07
2023-11-12T23:12:58.391Z,11.29
